sensor_id;sensor_type;location;lat;lon;timestamp;pressure;altitude;pressure_sealevel;temperature;humidity
13661;BME280;6903;49.480;11.102;2023-02-17T00:02:21;98630.34;;;8.04;100.00
13661;BME280;6903;49.480;11.102;2023-02-17T00:04:46;98634.41;;;8.10;100.00
13661;BME280;6903;49.480;11.102;2023-02-17T00:07:12;98628.78;;;8.16;100.00
13661;BME280;6903;49.480;11.102;2023-02-17T00:09:37;98620.63;;;8.20;100.00
13661;BME280;6903;49.480;11.102;2023-02-17T00:12:03;98615.97;;;8.25;100.00
13661;BME280;6903;49.480;11.102;2023-02-17T00:14:28;98621.25;;;8.25;100.00
13661;BME280;6903;49.480;11.102;2023-02-17T00:16:53;98624.72;;;8.26;100.00
13661;BME280;6903;49.480;11.102;2023-02-17T00:19:19;98621.91;;;8.29;100.00
13661;BME280;6903;49.480;11.102;2023-02-17T00:21:54;98612.88;;;8.33;100.00
13661;BME280;6903;49.480;11.102;2023-02-17T00:24:23;98617.03;;;8.37;100.00
13661;BME280;6903;49.480;11.102;2023-02-17T00:26:49;98616.00;;;8.39;100.00
13661;BME280;6903;49.480;11.102;2023-02-17T00:29:15;98617.53;;;8.43;100.00
13661;BME280;6903;49.480;11.102;2023-02-17T00:31:40;98614.69;;;8.46;100.00
13661;BME280;6903;49.480;11.102;2023-02-17T00:34:06;98627.66;;;8.49;100.00
13661;BME280;6903;49.480;11.102;2023-02-17T00:36:31;98617.81;;;8.53;100.00
13661;BME280;6903;49.480;11.102;2023-02-17T00:38:56;98621.91;;;8.57;100.00
13661;BME280;6903;49.480;11.102;2023-02-17T00:41:23;98627.09;;;8.58;100.00
13661;BME280;6903;49.480;11.102;2023-02-17T00:43:48;98625.88;;;8.64;100.00
13661;BME280;6903;49.480;11.102;2023-02-17T00:46:15;98626.81;;;8.63;100.00
13661;BME280;6903;49.480;11.102;2023-02-17T00:48:41;98627.56;;;8.65;100.00
13661;BME280;6903;49.480;11.102;2023-02-17T00:51:06;98623.34;;;8.63;100.00
13661;BME280;6903;49.480;11.102;2023-02-17T00:53:32;98623.16;;;8.66;100.00
13661;BME280;6903;49.480;11.102;2023-02-17T00:55:57;98623.16;;;8.66;100.00
13661;BME280;6903;49.480;11.102;2023-02-17T00:58:23;98624.00;;;8.66;100.00
13661;BME280;6903;49.480;11.102;2023-02-17T01:00:48;98620.53;;;8.66;100.00
13661;BME280;6903;49.480;11.102;2023-02-17T01:03:13;98619.66;;;8.65;100.00
13661;BME280;6903;49.480;11.102;2023-02-17T01:05:43;98625.13;;;8.62;100.00
13661;BME280;6903;49.480;11.102;2023-02-17T01:08:08;98629.56;;;8.62;100.00
13661;BME280;6903;49.480;11.102;2023-02-17T01:10:39;98624.38;;;8.60;100.00
13661;BME280;6903;49.480;11.102;2023-02-17T01:13:05;98619.88;;;8.62;100.00
13661;BME280;6903;49.480;11.102;2023-02-17T01:15:31;98621.75;;;8.60;100.00
13661;BME280;6903;49.480;11.102;2023-02-17T01:17:57;98626.94;;;8.62;100.00
13661;BME280;6903;49.480;11.102;2023-02-17T01:20:22;98626.06;;;8.61;100.00
13661;BME280;6903;49.480;11.102;2023-02-17T01:22:47;98626.06;;;8.61;100.00
13661;BME280;6903;49.480;11.102;2023-02-17T01:25:13;98625.22;;;8.60;100.00
13661;BME280;6903;49.480;11.102;2023-02-17T01:27:38;98619.56;;;8.67;100.00
13661;BME280;6903;49.480;11.102;2023-02-17T01:30:04;98607.19;;;8.69;100.00
13661;BME280;6903;49.480;11.102;2023-02-17T01:32:29;98609.06;;;8.67;100.00
13661;BME280;6903;49.480;11.102;2023-02-17T01:34:55;98612.63;;;8.66;100.00
13661;BME280;6903;49.480;11.102;2023-02-17T01:37:20;98609.34;;;8.62;100.00
13661;BME280;6903;49.480;11.102;2023-02-17T01:39:45;98598.94;;;8.60;100.00
13661;BME280;6903;49.480;11.102;2023-02-17T01:42:15;98595.53;;;8.58;100.00
13661;BME280;6903;49.480;11.102;2023-02-17T01:50:15;98585.59;;;8.63;100.00
13661;BME280;6903;49.480;11.102;2023-02-17T01:52:43;98577.81;;;8.62;100.00
13661;BME280;6903;49.480;11.102;2023-02-17T01:55:12;98579.41;;;8.65;100.00
13661;BME280;6903;49.480;11.102;2023-02-17T01:57:40;98574.97;;;8.65;100.00
13661;BME280;6903;49.480;11.102;2023-02-17T02:00:08;98567.00;;;8.67;100.00
13661;BME280;6903;49.480;11.102;2023-02-17T02:02:35;98566.06;;;8.68;100.00
13661;BME280;6903;49.480;11.102;2023-02-17T02:05:01;98560.72;;;8.69;100.00
13661;BME280;6903;49.480;11.102;2023-02-17T02:07:31;98558.84;;;8.71;100.00
13661;BME280;6903;49.480;11.102;2023-02-17T02:09:58;98556.22;;;8.71;100.00
13661;BME280;6903;49.480;11.102;2023-02-17T02:12:26;98550.00;;;8.72;100.00
13661;BME280;6903;49.480;11.102;2023-02-17T02:14:55;98551.69;;;8.73;100.00
13661;BME280;6903;49.480;11.102;2023-02-17T02:18:00;98552.53;;;8.74;100.00
13661;BME280;6903;49.480;11.102;2023-02-17T02:20:37;98548.22;;;8.73;100.00
13661;BME280;6903;49.480;11.102;2023-02-17T02:23:43;98545.34;;;8.63;100.00
13661;BME280;6903;49.480;11.102;2023-02-17T02:26:52;98537.06;;;8.41;100.00
13661;BME280;6903;49.480;11.102;2023-02-17T02:29:50;98533.69;;;8.25;100.00
13661;BME280;6903;49.480;11.102;2023-02-17T02:32:56;98530.75;;;8.15;100.00
13661;BME280;6903;49.480;11.102;2023-02-17T02:35:33;98531.13;;;8.09;100.00
13661;BME280;6903;49.480;11.102;2023-02-17T02:38:15;98531.97;;;8.10;100.00
13661;BME280;6903;49.480;11.102;2023-02-17T02:40:49;98531.03;;;8.11;100.00
13661;BME280;6903;49.480;11.102;2023-02-17T02:43:17;98525.00;;;8.09;100.00
13661;BME280;6903;49.480;11.102;2023-02-17T02:45:42;98526.25;;;8.03;100.00
13661;BME280;6903;49.480;11.102;2023-02-17T02:48:08;98524.63;;;8.01;100.00
13661;BME280;6903;49.480;11.102;2023-02-17T02:50:46;98520.06;;;8.04;100.00
13661;BME280;6903;49.480;11.102;2023-02-17T02:53:29;98515.47;;;8.08;100.00
13661;BME280;6903;49.480;11.102;2023-02-17T02:56:12;98518.09;;;8.08;100.00
13661;BME280;6903;49.480;11.102;2023-02-17T02:58:48;98519.66;;;8.10;100.00
13661;BME280;6903;49.480;11.102;2023-02-17T03:04:25;98513.03;;;8.19;100.00
13661;BME280;6903;49.480;11.102;2023-02-17T03:06:59;98518.03;;;8.23;100.00
13661;BME280;6903;49.480;11.102;2023-02-17T03:09:27;98519.44;;;8.29;100.00
13661;BME280;6903;49.480;11.102;2023-02-17T03:11:57;98514.00;;;8.32;100.00
13661;BME280;6903;49.480;11.102;2023-02-17T03:14:23;98513.72;;;8.36;100.00
13661;BME280;6903;49.480;11.102;2023-02-17T03:16:50;98507.06;;;8.31;100.00
13661;BME280;6903;49.480;11.102;2023-02-17T03:19:17;98511.19;;;8.35;100.00
13661;BME280;6903;49.480;11.102;2023-02-17T03:21:51;98515.50;;;8.36;100.00
13661;BME280;6903;49.480;11.102;2023-02-17T03:24:17;98507.69;;;8.34;100.00
13661;BME280;6903;49.480;11.102;2023-02-17T03:26:43;98512.13;;;8.34;100.00
13661;BME280;6903;49.480;11.102;2023-02-17T03:29:08;98508.94;;;8.29;100.00
13661;BME280;6903;49.480;11.102;2023-02-17T03:31:34;98507.22;;;8.28;100.00
13661;BME280;6903;49.480;11.102;2023-02-17T03:33:59;98508.94;;;8.29;100.00
13661;BME280;6903;49.480;11.102;2023-02-17T03:36:25;98514.38;;;8.26;100.00
13661;BME280;6903;49.480;11.102;2023-02-17T03:38:50;98509.94;;;8.26;100.00
13661;BME280;6903;49.480;11.102;2023-02-17T03:41:15;98511.94;;;8.23;100.00
13661;BME280;6903;49.480;11.102;2023-02-17T03:43:41;98513.88;;;8.19;100.00
13661;BME280;6903;49.480;11.102;2023-02-17T03:46:10;98516.50;;;8.19;100.00
13661;BME280;6903;49.480;11.102;2023-02-17T03:48:36;98507.78;;;8.19;100.00
13661;BME280;6903;49.480;11.102;2023-02-17T03:51:16;98510.59;;;8.16;100.00
13661;BME280;6903;49.480;11.102;2023-02-17T03:53:42;98508.16;;;8.13;100.00
13661;BME280;6903;49.480;11.102;2023-02-17T03:56:08;98513.41;;;8.13;100.00
13661;BME280;6903;49.480;11.102;2023-02-17T03:58:34;98508.53;;;8.07;100.00
13661;BME280;6903;49.480;11.102;2023-02-17T04:00:59;98513.94;;;8.04;100.00
13661;BME280;6903;49.480;11.102;2023-02-17T04:03:25;98516.84;;;7.99;100.00
13661;BME280;6903;49.480;11.102;2023-02-17T04:05:50;98519.47;;;7.99;100.00
13661;BME280;6903;49.480;11.102;2023-02-17T04:08:15;98516.03;;;7.99;100.00
13661;BME280;6903;49.480;11.102;2023-02-17T04:10:41;98516.66;;;8.02;100.00
13661;BME280;6903;49.480;11.102;2023-02-17T04:13:06;98513.13;;;8.03;100.00
13661;BME280;6903;49.480;11.102;2023-02-17T04:15:31;98514.03;;;8.02;100.00
13661;BME280;6903;49.480;11.102;2023-02-17T04:17:56;98512.25;;;8.03;100.00
13661;BME280;6903;49.480;11.102;2023-02-17T04:20:22;98510.50;;;8.03;100.00
13661;BME280;6903;49.480;11.102;2023-02-17T04:22:48;98506.81;;;8.06;100.00
13661;BME280;6903;49.480;11.102;2023-02-17T04:25:13;98503.28;;;8.07;100.00
13661;BME280;6903;49.480;11.102;2023-02-17T04:27:38;98503.91;;;8.10;100.00
13661;BME280;6903;49.480;11.102;2023-02-17T04:30:04;98504.75;;;8.11;100.00
13661;BME280;6903;49.480;11.102;2023-02-17T04:32:31;98507.09;;;8.15;100.00
13661;BME280;6903;49.480;11.102;2023-02-17T04:34:56;98509.53;;;8.18;100.00
13661;BME280;6903;49.480;11.102;2023-02-17T04:37:21;98504.94;;;8.22;100.00
13661;BME280;6903;49.480;11.102;2023-02-17T04:39:47;98509.94;;;8.26;100.00
13661;BME280;6903;49.480;11.102;2023-02-17T04:42:12;98501.81;;;8.31;100.00
13661;BME280;6903;49.480;11.102;2023-02-17T04:44:37;98501.97;;;8.28;100.00
13661;BME280;6903;49.480;11.102;2023-02-17T04:47:03;98499.28;;;8.29;100.00
13661;BME280;6903;49.480;11.102;2023-02-17T04:49:28;98498.03;;;8.35;100.00
13661;BME280;6903;49.480;11.102;2023-02-17T04:51:53;98497.03;;;8.37;100.00
13661;BME280;6903;49.480;11.102;2023-02-17T04:54:18;98495.97;;;8.40;100.00
13661;BME280;6903;49.480;11.102;2023-02-17T04:56:44;98496.63;;;8.43;100.00
13661;BME280;6903;49.480;11.102;2023-02-17T04:59:10;98491.38;;;8.43;100.00
13661;BME280;6903;49.480;11.102;2023-02-17T05:01:35;98493.81;;;8.46;100.00
13661;BME280;6903;49.480;11.102;2023-02-17T05:04:00;98496.25;;;8.49;100.00
13661;BME280;6903;49.480;11.102;2023-02-17T05:06:26;98494.47;;;8.50;100.00
13661;BME280;6903;49.480;11.102;2023-02-17T05:08:51;98496.53;;;8.45;100.00
13661;BME280;6903;49.480;11.102;2023-02-17T05:11:18;98488.56;;;8.46;100.00
13661;BME280;6903;49.480;11.102;2023-02-17T05:13:43;98490.78;;;8.52;100.00
13661;BME280;6903;49.480;11.102;2023-02-17T05:16:08;98490.78;;;8.52;100.00
13661;BME280;6903;49.480;11.102;2023-02-17T05:18:34;98488.06;;;8.54;100.00
13661;BME280;6903;49.480;11.102;2023-02-17T05:20:59;98478.00;;;8.60;100.00
13661;BME280;6903;49.480;11.102;2023-02-17T05:23:24;98476.03;;;8.64;100.00
13661;BME280;6903;49.480;11.102;2023-02-17T05:25:50;98478.47;;;8.67;100.00
13661;BME280;6903;49.480;11.102;2023-02-17T05:28:15;98471.34;;;8.69;100.00
13661;BME280;6903;49.480;11.102;2023-02-17T05:30:40;98480.78;;;8.72;100.00
13661;BME280;6903;49.480;11.102;2023-02-17T05:33:06;98470.94;;;8.75;100.00
13661;BME280;6903;49.480;11.102;2023-02-17T05:35:33;98471.59;;;8.79;100.00
13661;BME280;6903;49.480;11.102;2023-02-17T05:37:58;98468.47;;;8.86;100.00
13661;BME280;6903;49.480;11.102;2023-02-17T05:40:24;98475.13;;;8.92;100.00
13661;BME280;6903;49.480;11.102;2023-02-17T05:42:49;98476.50;;;8.97;100.00
13661;BME280;6903;49.480;11.102;2023-02-17T05:45:14;98469.16;;;9.02;100.00
13661;BME280;6903;49.480;11.102;2023-02-17T05:47:39;98470.56;;;9.08;100.00
13661;BME280;6903;49.480;11.102;2023-02-17T05:50:05;98471.75;;;9.16;100.00
13661;BME280;6903;49.480;11.102;2023-02-17T05:52:31;98476.59;;;9.22;100.00
13661;BME280;6903;49.480;11.102;2023-02-17T05:54:56;98471.78;;;9.29;100.00
13661;BME280;6903;49.480;11.102;2023-02-17T05:57:21;98470.63;;;9.33;100.00
13661;BME280;6903;49.480;11.102;2023-02-17T05:59:47;98475.78;;;9.34;100.00
13661;BME280;6903;49.480;11.102;2023-02-17T06:02:12;98482.34;;;9.41;100.00
13661;BME280;6903;49.480;11.102;2023-02-17T06:04:38;98482.88;;;9.46;100.00
13661;BME280;6903;49.480;11.102;2023-02-17T06:07:03;98483.53;;;9.50;100.00
13661;BME280;6903;49.480;11.102;2023-02-17T06:09:28;98485.75;;;9.56;100.00
13661;BME280;6903;49.480;11.102;2023-02-17T06:11:53;98487.22;;;9.60;100.00
13661;BME280;6903;49.480;11.102;2023-02-17T06:14:19;98487.84;;;9.63;100.00
13661;BME280;6903;49.480;11.102;2023-02-17T06:16:44;98493.75;;;9.67;100.00
13661;BME280;6903;49.480;11.102;2023-02-17T06:19:09;98495.34;;;9.69;100.00
13661;BME280;6903;49.480;11.102;2023-02-17T06:21:35;98491.56;;;9.73;100.00
13661;BME280;6903;49.480;11.102;2023-02-17T06:24:00;98501.22;;;9.73;100.00
13661;BME280;6903;49.480;11.102;2023-02-17T06:26:25;98495.69;;;9.77;100.00
13661;BME280;6903;49.480;11.102;2023-02-17T06:28:51;98495.38;;;9.82;100.00
13661;BME280;6903;49.480;11.102;2023-02-17T06:31:16;98495.03;;;9.86;100.00
13661;BME280;6903;49.480;11.102;2023-02-17T06:33:41;98496.72;;;9.87;100.00
13661;BME280;6903;49.480;11.102;2023-02-17T06:36:07;98493.97;;;9.89;100.00
13661;BME280;6903;49.480;11.102;2023-02-17T06:38:32;98491.59;;;9.98;100.00
13661;BME280;6903;49.480;11.102;2023-02-17T06:40:57;98488.75;;;10.01;100.00
13661;BME280;6903;49.480;11.102;2023-02-17T06:43:23;98494.34;;;10.10;100.00
13661;BME280;6903;49.480;11.102;2023-02-17T06:45:48;98494.03;;;10.14;100.00
13661;BME280;6903;49.480;11.102;2023-02-17T06:48:13;98491.50;;;10.13;100.00
13661;BME280;6903;49.480;11.102;2023-02-17T06:50:39;98484.53;;;10.12;100.00
13661;BME280;6903;49.480;11.102;2023-02-17T06:53:04;98487.91;;;10.14;100.00
13661;BME280;6903;49.480;11.102;2023-02-17T06:55:29;98491.19;;;10.17;100.00
13661;BME280;6903;49.480;11.102;2023-02-17T06:57:55;98497.84;;;10.23;100.00
13661;BME280;6903;49.480;11.102;2023-02-17T07:00:20;98493.16;;;10.26;100.00
13661;BME280;6903;49.480;11.102;2023-02-17T07:02:46;98498.03;;;10.32;100.00
13661;BME280;6903;49.480;11.102;2023-02-17T07:05:11;98504.97;;;10.33;100.00
13661;BME280;6903;49.480;11.102;2023-02-17T07:07:36;98502.25;;;10.35;100.00
13661;BME280;6903;49.480;11.102;2023-02-17T07:10:03;98498.47;;;10.39;100.00
13661;BME280;6903;49.480;11.102;2023-02-17T07:12:28;98501.69;;;10.42;100.00
13661;BME280;6903;49.480;11.102;2023-02-17T07:14:54;98504.84;;;10.47;100.00
13661;BME280;6903;49.480;11.102;2023-02-17T07:17:19;98507.28;;;10.50;100.00
13661;BME280;6903;49.480;11.102;2023-02-17T07:19:44;98508.53;;;10.57;100.00
13661;BME280;6903;49.480;11.102;2023-02-17T07:22:10;98504.53;;;10.64;100.00
13661;BME280;6903;49.480;11.102;2023-02-17T07:24:35;98505.16;;;10.68;100.00
13661;BME280;6903;49.480;11.102;2023-02-17T07:27:00;98506.59;;;10.72;100.00
13661;BME280;6903;49.480;11.102;2023-02-17T07:29:26;98503.41;;;10.79;100.00
13661;BME280;6903;49.480;11.102;2023-02-17T07:31:51;98509.09;;;10.86;100.00
13661;BME280;6903;49.480;11.102;2023-02-17T07:34:17;98500.47;;;10.84;100.00
13661;BME280;6903;49.480;11.102;2023-02-17T07:36:42;98506.47;;;10.86;100.00
13661;BME280;6903;49.480;11.102;2023-02-17T07:39:07;98504.66;;;10.86;100.00
13661;BME280;6903;49.480;11.102;2023-02-17T07:41:33;98501.69;;;10.91;100.00
13661;BME280;6903;49.480;11.102;2023-02-17T07:43:58;98494.75;;;10.90;100.00
13661;BME280;6903;49.480;11.102;2023-02-17T07:46:24;98500.66;;;10.93;100.00
13661;BME280;6903;49.480;11.102;2023-02-17T07:48:50;98500.31;;;10.98;100.00
13661;BME280;6903;49.480;11.102;2023-02-17T07:51:19;98508.63;;;11.04;100.00
13661;BME280;6903;49.480;11.102;2023-02-17T07:53:45;98509.25;;;11.08;100.00
13661;BME280;6903;49.480;11.102;2023-02-17T07:56:12;98515.97;;;11.12;100.00
13661;BME280;6903;49.480;11.102;2023-02-17T07:58:39;98533.59;;;11.11;100.00
13661;BME280;6903;49.480;11.102;2023-02-17T08:01:19;98535.31;;;11.12;100.00
13661;BME280;6903;49.480;11.102;2023-02-17T08:03:45;98526.66;;;11.10;100.00
13661;BME280;6903;49.480;11.102;2023-02-17T08:06:12;98531.81;;;11.12;100.00
13661;BME280;6903;49.480;11.102;2023-02-17T08:08:39;98533.72;;;11.10;100.00
13661;BME280;6903;49.480;11.102;2023-02-17T08:11:24;98534.13;;;11.16;100.00
13661;BME280;6903;49.480;11.102;2023-02-17T08:14:08;98535.81;;;11.17;100.00
13661;BME280;6903;49.480;11.102;2023-02-17T08:16:33;98540.13;;;11.18;100.00
13661;BME280;6903;49.480;11.102;2023-02-17T08:18:58;98546.25;;;11.19;100.00
13661;BME280;6903;49.480;11.102;2023-02-17T08:21:25;98531.34;;;11.18;100.00
13661;BME280;6903;49.480;11.102;2023-02-17T08:23:51;98533.88;;;11.19;100.00
13661;BME280;6903;49.480;11.102;2023-02-17T08:26:17;98539.78;;;11.23;100.00
13661;BME280;6903;49.480;11.102;2023-02-17T08:28:44;98534.28;;;11.26;100.00
13661;BME280;6903;49.480;11.102;2023-02-17T08:31:30;98537.22;;;11.34;100.00
13661;BME280;6903;49.480;11.102;2023-02-17T08:33:56;98531.34;;;11.30;100.00
13661;BME280;6903;49.480;11.102;2023-02-17T08:36:23;98530.03;;;11.36;100.00
13661;BME280;6903;49.480;11.102;2023-02-17T08:38:49;98539.03;;;11.33;100.00
13661;BME280;6903;49.480;11.102;2023-02-17T08:43:42;98541.50;;;11.24;100.00
13661;BME280;6903;49.480;11.102;2023-02-17T08:46:09;98547.28;;;11.29;100.00
13661;BME280;6903;49.480;11.102;2023-02-17T08:48:34;98547.75;;;11.34;100.00
13661;BME280;6903;49.480;11.102;2023-02-17T08:51:00;98554.97;;;11.32;100.00
13661;BME280;6903;49.480;11.102;2023-02-17T08:53:26;98555.38;;;11.38;100.00
13661;BME280;6903;49.480;11.102;2023-02-17T08:55:51;98552.41;;;11.43;100.00
13661;BME280;6903;49.480;11.102;2023-02-17T08:58:16;98560.53;;;11.40;100.00
13661;BME280;6903;49.480;11.102;2023-02-17T09:00:42;98553.56;;;11.39;100.00
13661;BME280;6903;49.480;11.102;2023-02-17T09:03:07;98550.91;;;11.39;100.00
13661;BME280;6903;49.480;11.102;2023-02-17T09:05:32;98557.56;;;11.44;100.00
13661;BME280;6903;49.480;11.102;2023-02-17T09:07:59;98556.81;;;11.42;100.00
13661;BME280;6903;49.480;11.102;2023-02-17T09:10:24;98566.75;;;11.39;100.00
13661;BME280;6903;49.480;11.102;2023-02-17T09:12:50;98562.72;;;11.46;100.00
13661;BME280;6903;49.480;11.102;2023-02-17T09:15:16;98562.50;;;11.49;100.00
13661;BME280;6903;49.480;11.102;2023-02-17T09:17:41;98557.84;;;11.53;100.00
13661;BME280;6903;49.480;11.102;2023-02-17T09:20:07;98557.72;;;11.54;100.00
13661;BME280;6903;49.480;11.102;2023-02-17T09:22:32;98550.78;;;11.53;100.00
13661;BME280;6903;49.480;11.102;2023-02-17T09:24:58;98553.53;;;11.52;100.00
13661;BME280;6903;49.480;11.102;2023-02-17T09:27:23;98548.13;;;11.53;100.00
13661;BME280;6903;49.480;11.102;2023-02-17T09:29:48;98541.75;;;11.56;100.00
13661;BME280;6903;49.480;11.102;2023-02-17T09:32:14;98547.66;;;11.59;100.00
13661;BME280;6903;49.480;11.102;2023-02-17T09:34:39;98549.47;;;11.59;100.00
13661;BME280;6903;49.480;11.102;2023-02-17T09:37:10;98544.53;;;11.54;100.00
13661;BME280;6903;49.480;11.102;2023-02-17T09:39:35;98538.38;;;11.54;100.00
13661;BME280;6903;49.480;11.102;2023-02-17T09:42:01;98537.19;;;11.47;100.00
13661;BME280;6903;49.480;11.102;2023-02-17T09:44:40;98538.63;;;11.51;100.00
13661;BME280;6903;49.480;11.102;2023-02-17T09:47:24;98542.63;;;11.56;100.00
13661;BME280;6903;49.480;11.102;2023-02-17T09:49:57;98548.84;;;11.55;100.00
13661;BME280;6903;49.480;11.102;2023-02-17T09:52:42;98544.06;;;11.60;100.00
13661;BME280;6903;49.480;11.102;2023-02-17T09:55:20;98542.38;;;11.59;100.00
13661;BME280;6903;49.480;11.102;2023-02-17T09:57:55;98535.44;;;11.58;100.00
13661;BME280;6903;49.480;11.102;2023-02-17T10:00:29;98537.94;;;11.60;100.00
13661;BME280;6903;49.480;11.102;2023-02-17T10:03:19;98545.75;;;11.61;100.00
13661;BME280;6903;49.480;11.102;2023-02-17T10:07:01;98536.97;;;11.61;100.00
13661;BME280;6903;49.480;11.102;2023-02-17T10:09:25;98542.06;;;11.64;100.00
13661;BME280;6903;49.480;11.102;2023-02-17T10:12:02;98537.53;;;11.66;100.00
13661;BME280;6903;49.480;11.102;2023-02-17T10:14:33;98522.72;;;11.63;100.00
13661;BME280;6903;49.480;11.102;2023-02-17T10:17:08;98520.09;;;11.63;100.00
13661;BME280;6903;49.480;11.102;2023-02-17T10:19:49;98517.25;;;11.66;100.00
13661;BME280;6903;49.480;11.102;2023-02-17T10:22:20;98526.25;;;11.75;100.00
13661;BME280;6903;49.480;11.102;2023-02-17T10:24:46;98530.72;;;11.74;100.00
13661;BME280;6903;49.480;11.102;2023-02-17T10:27:40;98530.50;;;11.88;100.00
13661;BME280;6903;49.480;11.102;2023-02-17T10:30:51;98524.63;;;11.96;100.00
13661;BME280;6903;49.480;11.102;2023-02-17T10:33:41;98524.63;;;11.96;100.00
13661;BME280;6903;49.480;11.102;2023-02-17T10:36:25;98530.28;;;11.91;100.00
13661;BME280;6903;49.480;11.102;2023-02-17T10:39:27;98532.91;;;11.91;100.00
13661;BME280;6903;49.480;11.102;2023-02-17T10:41:56;98530.41;;;11.90;100.00
13661;BME280;6903;49.480;11.102;2023-02-17T10:44:23;98529.00;;;11.97;100.00
13661;BME280;6903;49.480;11.102;2023-02-17T10:46:51;98527.53;;;12.04;100.00
13661;BME280;6903;49.480;11.102;2023-02-17T10:49:26;98524.53;;;12.08;100.00
13661;BME280;6903;49.480;11.102;2023-02-17T10:51:53;98517.97;;;12.14;100.00
13661;BME280;6903;49.480;11.102;2023-02-17T10:54:31;98518.22;;;12.22;100.00
13661;BME280;6903;49.480;11.102;2023-02-17T10:57:00;98514.47;;;12.24;100.00
13661;BME280;6903;49.480;11.102;2023-02-17T10:59:32;98517.72;;;12.28;100.00
13661;BME280;6903;49.480;11.102;2023-02-17T11:04:43;98503.69;;;12.27;100.00
13661;BME280;6903;49.480;11.102;2023-02-17T11:07:11;98498.03;;;12.32;100.00
13661;BME280;6903;49.480;11.102;2023-02-17T11:09:39;98496.31;;;12.31;100.00
13661;BME280;6903;49.480;11.102;2023-02-17T11:12:20;98496.00;;;12.35;100.00
13661;BME280;6903;49.480;11.102;2023-02-17T11:14:49;98491.41;;;12.37;100.00
13661;BME280;6903;49.480;11.102;2023-02-17T11:17:29;98485.28;;;12.37;100.00
13661;BME280;6903;49.480;11.102;2023-02-17T11:20:26;98483.00;;;12.43;100.00
13661;BME280;6903;49.480;11.102;2023-02-17T11:22:47;98485.41;;;12.46;100.00
13661;BME280;6903;49.480;11.102;2023-02-17T11:25:27;98471.09;;;12.49;100.00
13661;BME280;6903;49.480;11.102;2023-02-17T11:27:58;98461.63;;;12.46;100.00
13661;BME280;6903;49.480;11.102;2023-02-17T11:30:24;98461.13;;;12.41;100.00
13661;BME280;6903;49.480;11.102;2023-02-17T11:32:50;98472.31;;;12.45;100.00
13661;BME280;6903;49.480;11.102;2023-02-17T11:38:20;98457.25;;;12.45;100.00
13661;BME280;6903;49.480;11.102;2023-02-17T11:43:23;98462.31;;;12.48;100.00
13661;BME280;6903;49.480;11.102;2023-02-17T11:45:54;98460.88;;;12.44;100.00
13661;BME280;6903;49.480;11.102;2023-02-17T11:48:48;98472.19;;;12.35;100.00
13661;BME280;6903;49.480;11.102;2023-02-17T11:51:32;98466.63;;;12.05;100.00
13661;BME280;6903;49.480;11.102;2023-02-17T11:56:40;98464.00;;;11.60;100.00
13661;BME280;6903;49.480;11.102;2023-02-17T11:59:29;98467.06;;;11.54;100.00
13661;BME280;6903;49.480;11.102;2023-02-17T12:07:38;98471.00;;;11.37;100.00
13661;BME280;6903;49.480;11.102;2023-02-17T12:10:18;98477.84;;;11.39;100.00
13661;BME280;6903;49.480;11.102;2023-02-17T12:15:56;98482.88;;;11.42;100.00
13661;BME280;6903;49.480;11.102;2023-02-17T12:24:39;98475.53;;;11.35;100.00
13661;BME280;6903;49.480;11.102;2023-02-17T12:27:32;98485.59;;;11.30;100.00
13661;BME280;6903;49.480;11.102;2023-02-17T12:30:24;98475.50;;;11.24;100.00
13661;BME280;6903;49.480;11.102;2023-02-17T12:36:01;98484.63;;;11.31;100.00
13661;BME280;6903;49.480;11.102;2023-02-17T12:38:38;98482.72;;;11.33;100.00
13661;BME280;6903;49.480;11.102;2023-02-17T12:41:09;98474.81;;;11.33;100.00
13661;BME280;6903;49.480;11.102;2023-02-17T12:43:40;98486.97;;;11.35;100.00
13661;BME280;6903;49.480;11.102;2023-02-17T12:46:10;98478.94;;;11.37;100.00
13661;BME280;6903;49.480;11.102;2023-02-17T12:48:56;98474.34;;;11.39;100.00
13661;BME280;6903;49.480;11.102;2023-02-17T12:51:29;98476.56;;;11.45;100.00
13661;BME280;6903;49.480;11.102;2023-02-17T12:54:17;98463.81;;;11.50;100.00
13661;BME280;6903;49.480;11.102;2023-02-17T12:56:48;98468.16;;;11.51;100.00
13661;BME280;6903;49.480;11.102;2023-02-17T12:59:20;98461.78;;;11.54;100.00
13661;BME280;6903;49.480;11.102;2023-02-17T13:01:58;98462.03;;;11.51;100.00
13661;BME280;6903;49.480;11.102;2023-02-17T13:04:25;98447.78;;;11.53;100.00
13661;BME280;6903;49.480;11.102;2023-02-17T13:07:20;98451.72;;;11.59;100.00
13661;BME280;6903;49.480;11.102;2023-02-17T13:09:49;98457.75;;;11.61;100.00
13661;BME280;6903;49.480;11.102;2023-02-17T13:17:36;98463.09;;;11.72;100.00
13661;BME280;6903;49.480;11.102;2023-02-17T13:22:40;98460.22;;;11.75;100.00
13661;BME280;6903;49.480;11.102;2023-02-17T13:25:10;98460.09;;;11.76;100.00
13661;BME280;6903;49.480;11.102;2023-02-17T13:27:37;98461.66;;;11.79;100.00
13661;BME280;6903;49.480;11.102;2023-02-17T13:30:23;98455.53;;;11.78;100.00
13661;BME280;6903;49.480;11.102;2023-02-17T13:33:30;98454.44;;;11.81;100.00
13661;BME280;6903;49.480;11.102;2023-02-17T13:35:50;98450.25;;;11.78;100.00
13661;BME280;6903;49.480;11.102;2023-02-17T13:38:29;98446.63;;;11.79;100.00
13661;BME280;6903;49.480;11.102;2023-02-17T13:41:01;98446.31;;;11.84;100.00
13661;BME280;6903;49.480;11.102;2023-02-17T13:43:29;98434.41;;;11.89;100.00
13661;BME280;6903;49.480;11.102;2023-02-17T13:46:03;98421.94;;;11.91;100.00
13661;BME280;6903;49.480;11.102;2023-02-17T13:48:33;98417.88;;;11.98;100.00
13661;BME280;6903;49.480;11.102;2023-02-17T13:51:04;98407.75;;;12.03;100.00
13661;BME280;6903;49.480;11.102;2023-02-17T13:53:35;98410.63;;;12.11;100.00
13661;BME280;6903;49.480;11.102;2023-02-17T13:56:07;98416.16;;;12.19;100.00
13661;BME280;6903;49.480;11.102;2023-02-17T13:58:37;98412.31;;;12.23;100.00